Time;durP1;ratioP1;P1;durP2;ratioP2;P2;SDS_P1;SDS_P2;PMS_P1;PMS_P2;Temp;Humidity;BMP_temperature;BMP_pressure;BME280_temperature;BME280_humidity;BME280_pressure;Samples;Min_cycle;Max_cycle;Signal;HPM_P1;HPM_P2
2022/08/17 00:00:43;;;;;;;;;;;;;;;22.20;83.37;98410.22;1687513;83;20096;-69
2022/08/17 00:03:16;;;;;;;;;;;;;;;22.17;83.52;98412.11;1687522;84;20108;-67
2022/08/17 00:05:45;;;;;;;;;;;;;;;22.18;83.64;98410.50;1685930;84;20104;-68
2022/08/17 00:08:13;;;;;;;;;;;;;;;22.17;83.61;98406.70;1685193;83;21178;-68
2022/08/17 00:10:41;;;;;;;;;;;;;;;22.15;83.77;98406.98;1687451;83;20113;-68
2022/08/17 00:13:14;;;;;;;;;;;;;;;22.12;83.94;98408.33;1687525;83;20096;-68
2022/08/17 00:15:42;;;;;;;;;;;;;;;22.14;84.02;98413.47;1686805;83;20116;-68
2022/08/17 00:18:08;;;;;;;;;;;;;;;22.16;84.01;98409.94;1684823;83;20421;-68
2022/08/17 00:20:35;;;;;;;;;;;;;;;22.17;83.94;98415.64;1685618;83;21273;-69
2022/08/17 00:23:09;;;;;;;;;;;;;;;22.20;84.04;98412.94;1687426;83;20116;-68
2022/08/17 00:25:35;;;;;;;;;;;;;;;22.24;84.00;98420.80;1687520;83;20114;-68
2022/08/17 00:28:02;;;;;;;;;;;;;;;22.27;83.77;98418.88;1685251;83;20739;-69
2022/08/17 00:30:29;;;;;;;;;;;;;;;22.26;83.65;98423.52;1687425;83;20072;-70
2022/08/17 00:32:55;;;;;;;;;;;;;;;22.24;83.54;98419.45;1687567;83;21166;-69
2022/08/17 00:35:22;;;;;;;;;;;;;;;22.21;83.52;98426.76;1677688;83;20528;-69
2022/08/17 00:37:52;;;;;;;;;;;;;;;22.15;83.54;98425.94;1683770;83;20422;-69
2022/08/17 00:40:18;;;;;;;;;;;;;;;22.11;83.57;98425.66;1687177;84;20111;-69
2022/08/17 00:42:45;;;;;;;;;;;;;;;22.08;83.60;98424.05;1687439;84;20120;-68
2022/08/17 00:45:13;;;;;;;;;;;;;;;22.05;83.69;98428.11;1687536;83;21168;-68
2022/08/17 00:47:40;;;;;;;;;;;;;;;22.03;83.75;98424.05;1682933;83;20124;-69
2022/08/17 00:50:09;;;;;;;;;;;;;;;22.01;83.82;98427.00;1682903;83;20143;-69
2022/08/17 00:52:38;;;;;;;;;;;;;;;22.00;83.86;98428.64;1683573;83;20084;-69
2022/08/17 00:55:06;;;;;;;;;;;;;;;21.99;83.92;98427.81;1692524;83;20220;-70
2022/08/17 00:57:35;;;;;;;;;;;;;;;22.01;83.96;98429.71;1701366;83;21164;-69
2022/08/17 01:00:08;;;;;;;;;;;;;;;22.03;83.91;98432.95;1698357;83;20413;-70
2022/08/17 01:02:38;;;;;;;;;;;;;;;22.02;83.89;98434.05;1701319;83;20144;-70
2022/08/17 01:05:06;;;;;;;;;;;;;;;22.02;83.87;98436.77;1700601;83;20203;-69
2022/08/17 01:07:34;;;;;;;;;;;;;;;22.01;83.82;98435.12;1696183;83;20167;-70
2022/08/17 01:10:00;;;;;;;;;;;;;;;22.00;83.81;98436.77;1690328;85;21156;-70
2022/08/17 01:12:27;;;;;;;;;;;;;;;22.00;83.83;98435.41;1666091;84;20119;-70
2022/08/17 01:14:54;;;;;;;;;;;;;;;21.99;83.84;98440.54;1695615;83;20166;-70
2022/08/17 01:17:20;;;;;;;;;;;;;;;21.97;83.86;98436.76;1698546;83;20425;-70
2022/08/17 01:19:46;;;;;;;;;;;;;;;21.96;83.87;98440.53;1696191;83;20123;-70
2022/08/17 01:22:21;;;;;;;;;;;;;;;21.96;83.98;98444.59;1695280;83;21128;-68
2022/08/17 01:24:52;;;;;;;;;;;;;;;21.95;84.01;98440.81;1694953;83;20091;-70
2022/08/17 01:27:19;;;;;;;;;;;;;;;21.93;84.02;98449.19;1696134;83;20087;-70
2022/08/17 01:29:48;;;;;;;;;;;;;;;21.92;84.00;98444.88;1696028;83;20115;-71
2022/08/17 01:32:15;;;;;;;;;;;;;;;21.92;84.04;98443.52;1695205;83;20091;-70
2022/08/17 01:34:41;;;;;;;;;;;;;;;21.95;83.88;98445.66;1692470;83;21254;-71
2022/08/17 01:37:08;;;;;;;;;;;;;;;21.96;83.86;98447.84;1704767;82;20101;-70
2022/08/17 01:39:40;;;;;;;;;;;;;;;21.96;83.82;98447.84;1720990;83;20109;-69
2022/08/17 01:42:30;;;;;;;;;;;;;;;21.95;83.84;98446.23;1718821;83;20138;-69
2022/08/17 01:44:58;;;;;;;;;;;;;;;21.94;83.84;98448.66;1721181;82;20169;-69
2022/08/17 01:47:24;;;;;;;;;;;;;;;21.91;83.92;98442.41;1702155;83;20540;-70
2022/08/17 01:49:50;;;;;;;;;;;;;;;21.92;83.97;98447.58;1720949;82;20237;-71
2022/08/17 01:52:16;;;;;;;;;;;;;;;21.92;84.02;98448.94;1720995;83;20117;-70
2022/08/17 01:54:44;;;;;;;;;;;;;;;21.93;83.97;98444.31;1719132;83;20747;-69
2022/08/17 01:57:11;;;;;;;;;;;;;;;21.95;84.02;98447.59;1686897;83;20171;-69
2022/08/17 01:59:37;;;;;;;;;;;;;;;21.95;84.04;98445.66;1686954;83;21231;-68
2022/08/17 02:02:04;;;;;;;;;;;;;;;21.97;84.03;98444.88;1646996;86;20171;-68
2022/08/17 02:04:31;;;;;;;;;;;;;;;22.00;83.94;98444.31;1670595;84;20121;-68
2022/08/17 02:06:58;;;;;;;;;;;;;;;21.99;83.84;98441.89;1686817;83;20150;-68
2022/08/17 02:09:26;;;;;;;;;;;;;;;21.99;83.84;98444.06;1639387;86;20131;-71
2022/08/17 02:11:53;;;;;;;;;;;;;;;22.01;83.83;98445.95;1670657;84;21179;-72
2022/08/17 02:14:20;;;;;;;;;;;;;;;22.01;83.67;98447.84;1685943;83;20128;-71
2022/08/17 02:16:47;;;;;;;;;;;;;;;21.99;83.61;98450.02;1667066;84;20086;-72
2022/08/17 02:19:14;;;;;;;;;;;;;;;21.96;83.62;98450.02;1670506;84;20177;-68
2022/08/17 02:21:42;;;;;;;;;;;;;;;21.95;83.66;98445.66;1667824;84;20153;-69
2022/08/17 02:24:11;;;;;;;;;;;;;;;21.98;83.46;98446.48;1670882;84;21186;-68
2022/08/17 02:26:37;;;;;;;;;;;;;;;21.95;83.48;98447.02;1685436;83;20169;-68
2022/08/17 02:29:04;;;;;;;;;;;;;;;21.93;83.46;98447.84;1670741;84;20133;-68
2022/08/17 02:31:30;;;;;;;;;;;;;;;21.88;83.60;98442.41;1667300;84;20117;-68
2022/08/17 02:33:56;;;;;;;;;;;;;;;21.87;83.68;98450.81;1670735;84;20105;-68
2022/08/17 02:36:23;;;;;;;;;;;;;;;21.86;83.76;98456.77;1682024;83;21161;-68
2022/08/17 02:38:49;;;;;;;;;;;;;;;21.89;83.64;98450.82;1715580;83;20131;-69
2022/08/17 02:41:15;;;;;;;;;;;;;;;21.86;83.72;98452.70;1699364;83;20127;-69
2022/08/17 02:43:41;;;;;;;;;;;;;;;21.85;83.79;98459.16;1699318;83;20116;-69
2022/08/17 02:46:08;;;;;;;;;;;;;;;21.87;83.78;98464.35;1698517;83;20536;-69
2022/08/17 02:48:35;;;;;;;;;;;;;;;21.87;83.76;98464.35;1698113;83;21135;-68
2022/08/17 02:51:01;;;;;;;;;;;;;;;21.87;83.80;98465.17;1698833;83;20103;-68
2022/08/17 02:53:27;;;;;;;;;;;;;;;21.90;83.71;98455.14;1699268;83;20147;-68
2022/08/17 02:55:54;;;;;;;;;;;;;;;21.90;83.60;98461.91;1705705;82;20483;-68
2022/08/17 02:58:20;;;;;;;;;;;;;;;21.92;83.72;98456.23;1712775;82;20097;-68
2022/08/17 03:00:47;;;;;;;;;;;;;;;21.99;83.76;98463.02;1714404;83;21242;-68
2022/08/17 03:03:17;;;;;;;;;;;;;;;22.05;83.62;98459.25;1714235;83;20148;-69
2022/08/17 03:05:45;;;;;;;;;;;;;;;22.11;83.50;98464.11;1694612;83;20153;-72
2022/08/17 03:08:11;;;;;;;;;;;;;;;22.16;83.30;98459.26;1713852;83;20419;-70
2022/08/17 03:10:38;;;;;;;;;;;;;;;22.19;83.04;98462.22;1714255;82;20420;-72
2022/08/17 03:13:04;;;;;;;;;;;;;;;22.21;82.84;98466.86;1714326;83;21109;-71
2022/08/17 03:15:32;;;;;;;;;;;;;;;22.20;82.64;98461.16;1713654;83;20101;-69
2022/08/17 03:17:59;;;;;;;;;;;;;;;22.18;82.52;98463.86;1700920;82;20466;-70
2022/08/17 03:20:27;;;;;;;;;;;;;;;22.17;82.65;98460.87;1711925;83;20089;-70
2022/08/17 03:22:54;;;;;;;;;;;;;;;22.19;82.63;98465.50;1713489;83;20144;-70
2022/08/17 03:25:29;;;;;;;;;;;;;;;22.21;82.72;98461.97;1713495;82;21122;-71
2022/08/17 03:27:56;;;;;;;;;;;;;;;22.23;82.74;98461.16;1695642;83;20086;-72
2022/08/17 03:30:22;;;;;;;;;;;;;;;22.28;82.64;98470.11;1714276;83;20196;-70
2022/08/17 03:32:50;;;;;;;;;;;;;;;22.30;82.59;98465.22;1714170;83;20086;-71
2022/08/17 03:35:18;;;;;;;;;;;;;;;22.37;82.51;98469.03;1703513;83;20437;-71
2022/08/17 03:37:44;;;;;;;;;;;;;;;22.39;82.34;98462.26;1712573;83;21168;-70
2022/08/17 03:40:11;;;;;;;;;;;;;;;22.44;82.22;98464.15;1706984;82;20125;-70
2022/08/17 03:42:38;;;;;;;;;;;;;;;22.49;81.98;98466.86;1713936;83;20117;-72
2022/08/17 03:45:06;;;;;;;;;;;;;;;22.48;81.69;98468.75;1714293;83;20113;-70
2022/08/17 03:58:36;;;;;;;;;;;;;;;22.29;81.43;98474.98;1714266;83;20447;-69
2022/08/17 04:01:03;;;;;;;;;;;;;;;22.20;81.42;98476.59;1714110;83;20105;-69
2022/08/17 04:03:30;;;;;;;;;;;;;;;22.13;81.58;98474.16;1714234;83;22061;-69
2022/08/17 04:05:56;;;;;;;;;;;;;;;22.08;81.57;98474.94;1714333;83;20085;-70
2022/08/17 04:08:23;;;;;;;;;;;;;;;22.04;81.71;98479.28;1714203;83;20157;-69
2022/08/17 04:10:49;;;;;;;;;;;;;;;22.04;81.75;98485.23;1713287;83;20121;-70
2022/08/17 04:13:16;;;;;;;;;;;;;;;22.03;81.78;98483.62;1714295;83;20085;-70
2022/08/17 04:15:42;;;;;;;;;;;;;;;22.02;81.80;98471.97;1713783;82;22090;-68
2022/08/17 04:18:08;;;;;;;;;;;;;;;22.00;81.79;98476.81;1714166;82;20137;-70
2022/08/17 04:20:35;;;;;;;;;;;;;;;21.97;81.89;98466.55;1714052;83;20105;-71
2022/08/17 04:23:08;;;;;;;;;;;;;;;21.98;81.89;98476.81;1714342;83;20610;-68
2022/08/17 04:25:37;;;;;;;;;;;;;;;21.94;82.09;98479.26;1712756;83;20141;-68
2022/08/17 04:28:04;;;;;;;;;;;;;;;21.93;82.10;98481.68;1714071;83;21183;-69
2022/08/17 04:30:31;;;;;;;;;;;;;;;21.95;82.14;98484.14;1713208;83;20133;-68
2022/08/17 04:33:09;;;;;;;;;;;;;;;21.93;82.05;98484.39;1714415;82;20121;-68
2022/08/17 04:35:38;;;;;;;;;;;;;;;21.92;82.10;98483.31;1704141;83;20628;-68
2022/08/17 04:38:07;;;;;;;;;;;;;;;21.93;82.07;98488.98;1714304;82;20124;-67
2022/08/17 04:43:20;;;;;;;;;;;;;;;21.90;82.08;98482.20;1714036;83;20114;-71
2022/08/17 04:45:49;;;;;;;;;;;;;;;21.88;82.02;98481.67;1714074;83;20447;-69
2022/08/17 04:48:15;;;;;;;;;;;;;;;21.89;82.03;98484.66;1714050;82;20101;-69
2022/08/17 04:50:43;;;;;;;;;;;;;;;21.91;82.02;98484.38;1711226;83;20443;-69
2022/08/17 04:53:11;;;;;;;;;;;;;;;21.93;82.03;98487.09;1714140;83;22078;-68
2022/08/17 04:55:37;;;;;;;;;;;;;;;21.95;82.01;98484.93;1713904;83;20415;-69
2022/08/17 04:58:04;;;;;;;;;;;;;;;21.98;81.93;98488.99;1713922;83;20136;-69
2022/08/17 05:00:30;;;;;;;;;;;;;;;22.00;82.03;98486.30;1713898;82;20121;-70
2022/08/17 05:02:57;;;;;;;;;;;;;;;22.07;81.75;98486.05;1714063;82;20145;-70
2022/08/17 05:05:26;;;;;;;;;;;;;;;22.11;81.80;98476.30;1714207;82;21170;-69
2022/08/17 05:07:53;;;;;;;;;;;;;;;22.17;81.48;98482.53;1714247;83;20090;-69
2022/08/17 05:10:22;;;;;;;;;;;;;;;22.22;81.45;98488.78;1712064;83;20642;-69
2022/08/17 05:13:01;;;;;;;;;;;;;;;22.29;81.21;98483.90;1713329;82;20078;-69
2022/08/17 05:15:29;;;;;;;;;;;;;;;22.31;80.87;98484.47;1713875;83;20109;-70
2022/08/17 05:17:55;;;;;;;;;;;;;;;22.34;80.67;98488.00;1719704;82;21184;-71
2022/08/17 05:20:22;;;;;;;;;;;;;;;22.38;80.60;98483.66;1720837;81;20161;-70
2022/08/17 05:22:51;;;;;;;;;;;;;;;22.42;80.23;98485.30;1712177;82;20086;-69
2022/08/17 05:25:24;;;;;;;;;;;;;;;22.45;79.91;98488.79;1721492;82;20713;-69
2022/08/17 05:27:51;;;;;;;;;;;;;;;22.47;79.82;98490.71;1694810;83;20443;-69
2022/08/17 05:30:18;;;;;;;;;;;;;;;22.54;79.50;98487.19;1713485;82;21102;-69
2022/08/17 05:32:54;;;;;;;;;;;;;;;22.53;79.25;98493.67;1714033;82;20475;-69
2022/08/17 05:35:21;;;;;;;;;;;;;;;22.56;79.22;98494.49;1704869;82;20100;-70
2022/08/17 05:37:48;;;;;;;;;;;;;;;22.60;79.11;98496.95;1711687;82;20101;-71
2022/08/17 05:40:15;;;;;;;;;;;;;;;22.60;78.83;98495.59;1713145;83;20153;-71
2022/08/17 05:42:41;;;;;;;;;;;;;;;22.60;78.76;98496.95;1717630;82;21110;-70
2022/08/17 05:45:09;;;;;;;;;;;;;;;22.61;78.90;98495.84;1730460;82;20435;-70
2022/08/17 05:47:37;;;;;;;;;;;;;;;22.65;78.82;98494.27;1718104;82;20189;-70
2022/08/17 05:50:05;;;;;;;;;;;;;;;22.68;78.50;98497.80;1730171;82;20091;-69
2022/08/17 05:52:44;;;;;;;;;;;;;;;22.68;77.99;98493.73;1685566;82;20079;-69
2022/08/17 05:55:35;;;;;;;;;;;;;;;22.66;77.96;98492.63;1730473;82;21082;-70
2022/08/17 05:58:17;;;;;;;;;;;;;;;22.64;78.13;98496.69;1728395;82;20123;-67
2022/08/17 06:00:56;;;;;;;;;;;;;;;22.68;78.19;98501.30;1737907;82;20130;-69
2022/08/17 06:03:29;;;;;;;;;;;;;;;22.72;77.92;98498.33;1738756;82;20705;-69
2022/08/17 06:06:00;;;;;;;;;;;;;;;22.80;77.81;98499.67;1739008;82;20095;-68
2022/08/17 06:08:39;;;;;;;;;;;;;;;22.86;77.60;98504.02;1739270;82;20652;-67
2022/08/17 06:11:30;;;;;;;;;;;;;;;22.95;77.71;98498.30;1738877;82;20186;-69
2022/08/17 06:14:21;;;;;;;;;;;;;;;23.03;77.35;98499.09;1730607;82;20222;-70
2022/08/17 06:16:52;;;;;;;;;;;;;;;23.06;76.95;98505.88;1733560;82;20142;-69
2022/08/17 06:19:24;;;;;;;;;;;;;;;23.05;76.83;98500.98;1733314;82;20099;-69
2022/08/17 06:21:52;;;;;;;;;;;;;;;23.08;76.96;98506.41;1738891;82;20711;-69
2022/08/17 06:24:33;;;;;;;;;;;;;;;23.20;76.42;98503.66;1738702;82;20437;-69
2022/08/17 06:27:19;;;;;;;;;;;;;;;23.32;75.59;98506.09;1738832;82;20120;-69
2022/08/17 06:29:55;;;;;;;;;;;;;;;23.52;75.15;98503.33;1727731;82;20159;-69
2022/08/17 06:32:22;;;;;;;;;;;;;;;23.87;74.00;98496.95;1738900;82;20421;-70
2022/08/17 06:34:48;;;;;;;;;;;;;;;24.05;73.08;98496.30;1728975;82;21160;-71
2022/08/17 06:37:30;;;;;;;;;;;;;;;24.15;72.77;98498.16;1699080;83;20190;-69
2022/08/17 06:40:12;;;;;;;;;;;;;;;24.26;71.96;98488.32;1713686;83;20182;-70
2022/08/17 06:42:49;;;;;;;;;;;;;;;24.40;71.46;98500.73;1713732;83;20710;-69
2022/08/17 06:45:19;;;;;;;;;;;;;;;24.48;70.77;98498.77;1717178;82;20131;-70
2022/08/17 06:48:01;;;;;;;;;;;;;;;24.48;69.84;98506.36;1713193;82;22406;-69
2022/08/17 06:50:34;;;;;;;;;;;;;;;24.42;69.58;98505.33;1693749;83;20097;-68
2022/08/17 06:53:13;;;;;;;;;;;;;;;24.33;69.69;98503.75;1713459;83;20098;-68
2022/08/17 06:56:09;;;;;;;;;;;;;;;24.25;69.79;98513.04;1708890;82;20200;-68
2022/08/17 06:58:38;;;;;;;;;;;;;;;24.25;69.84;98515.22;1709906;82;20162;-68
2022/08/17 07:01:10;;;;;;;;;;;;;;;24.16;69.97;98513.39;1683500;84;22097;-69
2022/08/17 07:03:53;;;;;;;;;;;;;;;24.10;70.08;98509.06;1656353;86;20178;-68
2022/08/17 07:06:25;;;;;;;;;;;;;;;24.04;70.00;98508.25;1647591;85;20263;-69
2022/08/17 07:09:15;;;;;;;;;;;;;;;24.07;70.51;98512.31;1666548;85;20207;-68
2022/08/17 07:11:56;;;;;;;;;;;;;;;24.11;70.48;98510.16;1679065;85;20148;-69
2022/08/17 07:14:36;;;;;;;;;;;;;;;24.12;70.53;98514.48;1692039;83;21845;-68
2022/08/17 07:17:09;;;;;;;;;;;;;;;24.16;70.82;98511.48;1691701;83;20241;-68
2022/08/17 07:19:39;;;;;;;;;;;;;;;24.23;70.20;98509.80;1721560;82;20099;-68
2022/08/17 07:22:09;;;;;;;;;;;;;;;24.23;69.88;98508.44;1702184;82;20180;-71
2022/08/17 07:24:51;;;;;;;;;;;;;;;24.25;69.93;98510.33;1716676;82;20094;-69
2022/08/17 07:27:23;;;;;;;;;;;;;;;24.32;69.93;98512.20;1729318;82;21115;-70
2022/08/17 07:30:05;;;;;;;;;;;;;;;24.40;70.09;98506.95;1716278;82;20172;-70
2022/08/17 07:32:38;;;;;;;;;;;;;;;24.56;69.82;98505.75;1728368;82;20147;-69
2022/08/17 07:35:25;;;;;;;;;;;;;;;24.81;69.28;98512.12;1727825;82;20212;-69
2022/08/17 07:38:10;;;;;;;;;;;;;;;24.99;68.37;98514.13;1714304;83;20154;-69
2022/08/17 07:40:43;;;;;;;;;;;;;;;25.06;67.93;98511.88;1713004;83;21166;-69
2022/08/17 07:43:16;;;;;;;;;;;;;;;25.02;67.43;98515.73;1713087;83;20110;-68
2022/08/17 07:48:47;;;;;;;;;;;;;;;25.06;67.31;98522.21;1714941;82;20098;-70
2022/08/17 07:51:16;;;;;;;;;;;;;;;25.03;66.95;98522.78;1718485;82;20417;-68
2022/08/17 07:53:44;;;;;;;;;;;;;;;24.99;67.06;98524.47;1728965;82;21112;-68
2022/08/17 07:56:12;;;;;;;;;;;;;;;24.99;66.81;98530.45;1739215;82;20087;-70
2022/08/17 07:58:41;;;;;;;;;;;;;;;24.96;66.72;98533.20;1719038;82;20155;-69
2022/08/17 08:01:09;;;;;;;;;;;;;;;24.92;66.73;98529.44;1734464;82;20229;-69
2022/08/17 08:03:41;;;;;;;;;;;;;;;24.80;67.04;98537.68;1739527;82;20115;-69
2022/08/17 08:06:20;;;;;;;;;;;;;;;24.69;67.27;98539.64;1721174;82;21831;-69
2022/08/17 08:08:54;;;;;;;;;;;;;;;24.60;67.75;98535.09;1739451;82;20445;-68
2022/08/17 08:11:35;;;;;;;;;;;;;;;24.53;68.28;98536.79;1739627;82;20165;-70
2022/08/17 08:14:23;;;;;;;;;;;;;;;24.52;68.52;98537.87;1725252;82;20105;-70
2022/08/17 08:17:00;;;;;;;;;;;;;;;24.47;68.56;98545.53;1737291;82;20095;-70
2022/08/17 08:19:28;;;;;;;;;;;;;;;24.38;68.63;98548.56;1739473;82;21169;-72
2022/08/17 08:22:09;;;;;;;;;;;;;;;24.29;69.18;98547.55;1735315;82;20114;-69
2022/08/17 08:24:42;;;;;;;;;;;;;;;24.28;69.35;98550.53;1735476;82;20112;-69
2022/08/17 08:27:27;;;;;;;;;;;;;;;24.32;69.33;98552.97;1732124;82;20115;-70
2022/08/17 08:30:18;;;;;;;;;;;;;;;24.32;69.34;98551.61;1696311;82;20083;-69
2022/08/17 08:33:08;;;;;;;;;;;;;;;24.30;69.19;98561.38;1739445;82;21150;-69
2022/08/17 08:35:53;;;;;;;;;;;;;;;24.31;69.24;98560.30;1710487;82;20167;-66
2022/08/17 08:38:26;;;;;;;;;;;;;;;24.25;69.07;98558.70;1712597;83;20489;-69
2022/08/17 08:41:18;;;;;;;;;;;;;;;24.23;69.26;98562.25;1714407;83;20102;-70
2022/08/17 08:44:04;;;;;;;;;;;;;;;24.26;69.40;98561.70;1650512;85;20117;-68
2022/08/17 08:46:43;;;;;;;;;;;;;;;24.29;69.34;98565.22;1650746;86;21172;-70
2022/08/17 08:49:15;;;;;;;;;;;;;;;24.30;69.26;98559.23;1691813;82;20078;-70
2022/08/17 08:51:59;;;;;;;;;;;;;;;24.32;69.37;98564.66;1713973;83;20391;-69
2022/08/17 08:54:41;;;;;;;;;;;;;;;24.35;69.56;98569.50;1712104;83;20086;-69
2022/08/17 08:57:20;;;;;;;;;;;;;;;24.36;69.68;98569.78;1714259;82;20146;-68
2022/08/17 08:59:53;;;;;;;;;;;;;;;24.37;69.64;98570.06;1714305;83;21266;-70
2022/08/17 09:02:57;;;;;;;;;;;;;;;24.36;69.66;98577.12;1714277;83;20085;-69
2022/08/17 09:05:46;;;;;;;;;;;;;;;24.38;69.98;98574.92;1713609;83;20097;-69
2022/08/17 09:08:31;;;;;;;;;;;;;;;24.38;70.08;98577.64;1714426;83;20101;-69
2022/08/17 09:11:10;;;;;;;;;;;;;;;24.38;70.36;98568.13;1730550;82;20092;-67
2022/08/17 09:13:40;;;;;;;;;;;;;;;24.39;70.38;98577.38;1732353;82;21152;-70
2022/08/17 09:16:19;;;;;;;;;;;;;;;24.40;70.22;98574.91;1717884;82;20181;-69
2022/08/17 09:18:50;;;;;;;;;;;;;;;24.44;70.32;98572.45;1720275;82;20139;-69
2022/08/17 09:21:21;;;;;;;;;;;;;;;24.51;70.23;98575.12;1725839;82;20109;-69
2022/08/17 09:24:11;;;;;;;;;;;;;;;24.56;69.76;98575.08;1721808;82;20084;-69
2022/08/17 09:26:47;;;;;;;;;;;;;;;24.62;69.48;98577.77;1739443;82;21104;-68
2022/08/17 09:29:15;;;;;;;;;;;;;;;24.69;68.96;98578.28;1723752;82;37529;-71
2022/08/17 09:31:53;;;;;;;;;;;;;;;24.73;69.35;98577.97;1724917;82;20081;-69
2022/08/17 09:34:27;;;;;;;;;;;;;;;24.88;69.27;98572.44;1714792;82;20089;-70
2022/08/17 09:37:15;;;;;;;;;;;;;;;25.03;68.93;98580.46;1695500;83;20461;-70
2022/08/17 09:39:51;;;;;;;;;;;;;;;25.08;68.27;98578.52;1658953;86;21183;-70
2022/08/17 09:42:33;;;;;;;;;;;;;;;25.12;67.29;98580.12;1701276;82;20120;-70
2022/08/17 09:45:21;;;;;;;;;;;;;;;25.09;67.03;98577.42;1711086;83;20117;-70
2022/08/17 09:47:54;;;;;;;;;;;;;;;25.05;67.07;98575.57;1713753;83;20223;-70
2022/08/17 09:50:27;;;;;;;;;;;;;;;25.01;67.29;98575.86;1714328;83;20121;-70
2022/08/17 09:52:56;;;;;;;;;;;;;;;25.01;67.46;98580.76;1711987;83;21230;-72
2022/08/17 09:55:25;;;;;;;;;;;;;;;25.00;67.82;98585.14;1711549;82;20113;-68
2022/08/17 09:58:04;;;;;;;;;;;;;;;24.95;68.48;98589.27;1722390;82;20486;-69
2022/08/17 10:00:34;;;;;;;;;;;;;;;24.89;69.16;98589.84;1731149;81;20145;-68
2022/08/17 10:03:27;;;;;;;;;;;;;;;24.77;69.65;98594.00;1729201;81;20109;-68
2022/08/17 10:06:07;;;;;;;;;;;;;;;24.67;70.07;98596.22;1728784;81;21176;-71
2022/08/17 10:09:03;;;;;;;;;;;;;;;24.61;70.45;98605.53;1733637;81;20474;-72
2022/08/17 10:14:55;;;;;;;;;;;;;;;24.39;71.43;98605.10;1733629;81;20112;-71
2022/08/17 10:17:25;;;;;;;;;;;;;;;24.44;71.89;98607.25;1732539;81;20149;-73
2022/08/17 10:20:32;;;;;;;;;;;;;;;24.67;71.75;98602.20;1733672;83;21241;-72
2022/08/17 10:28:42;;;;;;;;;;;;;;;25.08;69.39;98598.13;1733226;83;20147;-71
2022/08/17 10:31:09;;;;;;;;;;;;;;;25.13;68.71;98598.09;1732996;83;20124;-71
2022/08/17 10:33:43;;;;;;;;;;;;;;;25.12;68.46;98601.89;1733876;83;21059;-71
2022/08/17 10:36:13;;;;;;;;;;;;;;;25.09;68.34;98600.55;1712198;81;20424;-71
2022/08/17 10:38:46;;;;;;;;;;;;;;;25.10;68.15;98599.47;1733708;83;20108;-71
2022/08/17 10:41:28;;;;;;;;;;;;;;;25.18;68.21;98595.86;1733677;83;20109;-72
2022/08/17 10:44:13;;;;;;;;;;;;;;;25.31;67.79;98595.20;1733161;83;20573;-71
2022/08/17 10:46:45;;;;;;;;;;;;;;;25.38;67.14;98594.30;1733738;81;21144;-70
2022/08/17 10:49:21;;;;;;;;;;;;;;;25.49;67.17;98594.50;1733643;81;20108;-71
2022/08/17 10:51:55;;;;;;;;;;;;;;;25.58;66.60;98589.49;1733652;81;20085;-72
2022/08/17 10:54:36;;;;;;;;;;;;;;;25.68;66.46;98596.19;1733619;81;20100;-70
2022/08/17 10:57:05;;;;;;;;;;;;;;;25.77;66.19;98597.73;1733623;81;20120;-72
2022/08/17 10:59:36;;;;;;;;;;;;;;;25.84;65.78;98594.11;1704508;83;21245;-71
2022/08/17 11:02:24;;;;;;;;;;;;;;;25.88;65.33;98599.80;1733619;81;20085;-71
2022/08/17 11:05:01;;;;;;;;;;;;;;;25.96;65.16;98593.70;1733736;83;20105;-72
2022/08/17 11:07:49;;;;;;;;;;;;;;;26.13;64.89;98594.05;1713725;81;20113;-72
2022/08/17 11:10:53;;;;;;;;;;;;;;;26.34;64.52;98594.87;1733579;81;20124;-71
2022/08/17 11:13:29;;;;;;;;;;;;;;;26.55;62.87;98589.12;1733668;81;21132;-70
2022/08/17 11:16:17;;;;;;;;;;;;;;;26.68;61.78;98587.83;1732247;81;20123;-71
2022/08/17 11:18:49;;;;;;;;;;;;;;;26.83;61.36;98587.62;1733719;81;20096;-72
2022/08/17 11:21:40;;;;;;;;;;;;;;;26.99;60.61;98580.00;1733591;81;20123;-73
2022/08/17 11:24:16;;;;;;;;;;;;;;;27.06;60.04;98572.80;1733129;83;20207;-70
2022/08/17 11:26:47;;;;;;;;;;;;;;;27.08;60.08;98577.41;1733986;81;21140;-70
2022/08/17 11:29:22;;;;;;;;;;;;;;;27.12;59.85;98573.77;1723423;81;20084;-71
2022/08/17 11:32:12;;;;;;;;;;;;;;;27.11;59.77;98568.08;1733730;81;20084;-71
2022/08/17 11:34:40;;;;;;;;;;;;;;;27.21;60.00;98572.54;1710016;83;20118;-71
2022/08/17 11:37:19;;;;;;;;;;;;;;;27.26;60.06;98571.08;1716976;81;20104;-74
2022/08/17 11:40:12;;;;;;;;;;;;;;;27.30;59.97;98578.91;1709058;81;21130;-72
2022/08/17 11:43:04;;;;;;;;;;;;;;;27.31;59.54;98566.89;1733636;83;20418;-72
2022/08/17 11:45:44;;;;;;;;;;;;;;;27.22;59.23;98574.17;1686241;85;20150;-72
2022/08/17 11:51:32;;;;;;;;;;;;;;;26.90;60.25;98575.80;1723400;83;20178;-72
2022/08/17 11:54:18;;;;;;;;;;;;;;;26.82;60.42;98567.47;1715299;81;21292;-72
2022/08/17 11:56:46;;;;;;;;;;;;;;;26.80;60.56;98571.05;1730723;81;20113;-73
2022/08/17 11:59:35;;;;;;;;;;;;;;;26.84;60.45;98573.43;1721412;83;20121;-72
2022/08/17 12:02:03;;;;;;;;;;;;;;;26.86;60.30;98573.39;1714203;83;20086;-70
2022/08/17 12:04:30;;;;;;;;;;;;;;;26.73;60.68;98571.93;1714247;83;20113;-70
2022/08/17 12:07:16;;;;;;;;;;;;;;;26.58;60.78;98576.27;1714116;83;21172;-71
2022/08/17 12:09:44;;;;;;;;;;;;;;;26.47;60.91;98575.59;1714210;83;20125;-71
2022/08/17 12:12:13;;;;;;;;;;;;;;;26.42;61.29;98575.67;1714245;83;20481;-71
2022/08/17 12:14:44;;;;;;;;;;;;;;;26.40;61.10;98577.89;1714165;83;20227;-71
2022/08/17 12:17:13;;;;;;;;;;;;;;;26.34;61.18;98573.05;1714182;82;20184;-71
2022/08/17 12:19:41;;;;;;;;;;;;;;;26.33;61.30;98574.15;1714422;83;21170;-72
2022/08/17 12:22:45;;;;;;;;;;;;;;;26.27;61.38;98571.25;1714244;82;20447;-72
2022/08/17 12:25:17;;;;;;;;;;;;;;;26.24;61.53;98571.02;1714708;83;20100;-72
2022/08/17 12:27:46;;;;;;;;;;;;;;;26.25;61.17;98565.84;1714103;83;20113;-70
2022/08/17 12:30:14;;;;;;;;;;;;;;;26.25;60.36;98563.90;1714279;83;20089;-71
2022/08/17 12:32:44;;;;;;;;;;;;;;;26.22;60.63;98572.69;1714325;83;20867;-71
2022/08/17 12:35:28;;;;;;;;;;;;;;;26.15;61.27;98577.67;1704572;83;20120;-71
2022/08/17 12:37:56;;;;;;;;;;;;;;;26.11;61.91;98573.07;1706306;83;20174;-71
2022/08/17 12:40:30;;;;;;;;;;;;;;;26.07;61.56;98578.28;1714219;83;20432;-72
2022/08/17 12:42:59;;;;;;;;;;;;;;;26.09;61.43;98578.83;1713260;83;20136;-70
2022/08/17 12:45:33;;;;;;;;;;;;;;;26.19;61.37;98573.27;1714217;83;21140;-71
2022/08/17 12:48:06;;;;;;;;;;;;;;;26.38;60.61;98572.71;1714414;82;20077;-71
2022/08/17 12:50:31;;;;;;;;;;;;;;;26.55;59.53;98571.39;1714103;83;20145;-71
2022/08/17 12:52:57;;;;;;;;;;;;;;;26.63;58.29;98578.36;1714144;83;20077;-71
2022/08/17 12:55:24;;;;;;;;;;;;;;;26.66;57.99;98584.59;1714289;83;20130;-71
2022/08/17 12:57:52;;;;;;;;;;;;;;;26.67;57.55;98588.92;1714330;83;21793;-71
2022/08/17 13:00:22;;;;;;;;;;;;;;;26.75;57.29;98593.72;1714166;82;20086;-71
2022/08/17 13:02:57;;;;;;;;;;;;;;;26.85;57.28;98591.44;1714047;83;20145;-72
2022/08/17 13:05:27;;;;;;;;;;;;;;;26.94;57.60;98593.18;1714387;83;20086;-71
2022/08/17 13:07:56;;;;;;;;;;;;;;;26.98;57.46;98593.95;1714495;83;20113;-70
2022/08/17 13:10:25;;;;;;;;;;;;;;;26.90;57.53;98587.26;1714271;83;21123;-72
2022/08/17 13:12:51;;;;;;;;;;;;;;;26.85;57.69;98584.61;1714242;83;20097;-71
2022/08/17 13:15:25;;;;;;;;;;;;;;;26.83;57.79;98590.34;1714580;83;20117;-71
2022/08/17 13:18:00;;;;;;;;;;;;;;;26.81;57.92;98584.38;1714345;82;20097;-72
2022/08/17 13:20:26;;;;;;;;;;;;;;;26.83;57.96;98588.16;1714331;83;20130;-71
2022/08/17 13:22:59;;;;;;;;;;;;;;;26.88;57.96;98582.66;1714289;83;21812;-71
2022/08/17 13:25:26;;;;;;;;;;;;;;;26.93;58.16;98573.02;1714340;83;20141;-70
2022/08/17 13:27:52;;;;;;;;;;;;;;;26.95;58.38;98572.16;1714474;83;20415;-70
2022/08/17 13:30:27;;;;;;;;;;;;;;;26.98;58.21;98569.63;1714298;83;20098;-70
2022/08/17 13:32:54;;;;;;;;;;;;;;;26.98;57.83;98571.57;1714326;83;20098;-71
2022/08/17 13:35:40;;;;;;;;;;;;;;;26.97;57.85;98574.03;1702647;83;21155;-71
2022/08/17 13:38:12;;;;;;;;;;;;;;;27.03;58.03;98569.30;1709803;83;20244;-71
2022/08/17 13:40:49;;;;;;;;;;;;;;;27.08;58.17;98574.67;1714298;83;20170;-71
2022/08/17 13:43:38;;;;;;;;;;;;;;;27.13;58.05;98578.69;1711557;83;20129;-72
2022/08/17 13:46:13;;;;;;;;;;;;;;;27.18;57.90;98578.59;1714442;83;20125;-72